createdAt,value
2018-09-01T00:01:37.161Z,19.80
2018-09-01T00:04:10.324Z,19.70
2018-09-01T00:06:43.069Z,19.80
2018-09-01T00:09:16.069Z,19.70
2018-09-01T00:11:50.697Z,19.70
2018-09-01T00:14:25.722Z,19.60
2018-09-01T00:17:00.390Z,19.50
2018-09-01T00:19:33.258Z,19.40
2018-09-01T00:22:06.099Z,19.40
2018-09-01T00:24:38.777Z,19.30
2018-09-01T00:27:35.497Z,19.40
2018-09-01T00:30:09.508Z,19.40
2018-09-01T00:32:43.853Z,19.40
2018-09-01T00:35:18.648Z,19.40
2018-09-01T00:37:57.378Z,19.40
2018-09-01T00:40:31.225Z,19.40
2018-09-01T00:43:07.619Z,19.40
2018-09-01T00:45:42.226Z,19.40
2018-09-01T00:48:50.999Z,19.40
2018-09-01T00:51:25.485Z,19.40
2018-09-01T00:54:00.827Z,19.30
2018-09-01T00:56:36.570Z,19.10
2018-09-01T00:59:11.290Z,19.00
2018-09-01T01:01:45.444Z,19.00
2018-09-01T01:04:19.302Z,19.00
2018-09-01T01:06:53.673Z,19.00
2018-09-01T01:09:26.821Z,19.10
2018-09-01T01:12:00.874Z,19.10
2018-09-01T01:14:35.435Z,19.00
2018-09-01T01:17:15.512Z,19.00
2018-09-01T01:20:14.228Z,19.00
2018-09-01T01:22:47.074Z,19.00
2018-09-01T01:25:20.177Z,18.80
2018-09-01T01:28:11.796Z,18.80
2018-09-01T01:34:07.587Z,18.80
2018-09-01T01:40:01.291Z,18.80
2018-09-01T01:42:35.331Z,18.80
2018-09-01T01:45:08.884Z,18.70
2018-09-01T01:47:44.411Z,18.70
2018-09-01T01:50:18.375Z,18.60
2018-09-01T01:56:12.147Z,18.70
2018-09-01T01:58:45.800Z,18.60
2018-09-01T02:01:18.544Z,18.60
2018-09-01T02:03:52.608Z,18.60
2018-09-01T02:06:26.234Z,18.60
2018-09-01T02:08:59.431Z,18.60
2018-09-01T02:11:36.779Z,18.60
2018-09-01T02:14:09.876Z,18.60
2018-09-01T02:16:44.593Z,18.60
2018-09-01T02:19:18.023Z,18.50
2018-09-01T02:22:35.306Z,18.50
2018-09-01T02:25:08.835Z,18.40
2018-09-01T02:27:41.926Z,18.40
2018-09-01T02:30:14.913Z,18.40
2018-09-01T02:32:48.122Z,18.40
2018-09-01T02:35:21.014Z,18.40
2018-09-01T02:37:54.872Z,18.40
2018-09-01T02:40:27.867Z,18.40
2018-09-01T02:43:01.446Z,18.40
2018-09-01T02:45:38.394Z,18.40
2018-09-01T02:48:13.757Z,18.40
2018-09-01T02:50:47.444Z,18.50
2018-09-01T02:53:21.881Z,18.50
2018-09-01T02:55:55.641Z,18.60
2018-09-01T02:58:29.133Z,18.60
2018-09-01T03:01:08.270Z,18.70
2018-09-01T03:03:42.214Z,18.60
2018-09-01T03:06:15.848Z,18.70
2018-09-01T03:08:50.040Z,18.60
2018-09-01T03:11:24.083Z,18.60
2018-09-01T03:13:57.756Z,18.70
2018-09-01T03:16:31.412Z,18.70
2018-09-01T03:19:04.932Z,18.60
2018-09-01T03:21:48.147Z,18.70
2018-09-01T03:24:22.708Z,18.70
2018-09-01T03:26:55.629Z,18.70
2018-09-01T03:29:29.672Z,18.60
2018-09-01T03:32:04.178Z,18.70
2018-09-01T03:34:38.014Z,18.70
2018-09-01T03:37:12.808Z,18.80
2018-09-01T03:39:47.706Z,18.80
2018-09-01T03:42:21.845Z,18.90
2018-09-01T03:44:55.429Z,18.80
2018-09-01T03:47:29.105Z,18.80
2018-09-01T03:50:02.618Z,18.70
2018-09-01T03:56:05.295Z,18.60
2018-09-01T03:58:37.996Z,18.60
2018-09-01T04:01:11.108Z,18.50
2018-09-01T04:03:43.700Z,18.40
2018-09-01T04:06:17.121Z,18.30
2018-09-01T04:08:49.283Z,18.20
2018-09-01T04:11:21.626Z,18.10
2018-09-01T04:13:55.169Z,18.00
2018-09-01T04:16:31.948Z,18.00
2018-09-01T04:22:26.590Z,17.80
2018-09-01T04:24:58.835Z,17.70
2018-09-01T04:27:31.190Z,17.70
2018-09-01T04:30:03.502Z,17.70
2018-09-01T04:32:36.174Z,17.70
2018-09-01T04:35:08.453Z,17.70
2018-09-01T04:37:40.755Z,17.60
2018-09-01T04:40:13.008Z,17.60
2018-09-01T04:42:45.713Z,17.70
2018-09-01T04:45:18.100Z,17.70
2018-09-01T04:47:50.980Z,17.70
2018-09-01T04:50:23.382Z,17.80
2018-09-01T04:52:55.756Z,17.70
2018-09-01T04:55:28.649Z,17.70
2018-09-01T04:58:00.868Z,17.70
2018-09-01T05:03:54.049Z,17.70
2018-09-01T05:06:26.222Z,17.60
2018-09-01T05:08:58.439Z,17.60
2018-09-01T05:11:30.631Z,17.70
2018-09-01T05:14:02.877Z,17.70
2018-09-01T05:16:35.559Z,17.60
2018-09-01T05:19:07.924Z,17.50
2018-09-01T05:21:40.141Z,17.50
2018-09-01T05:24:12.325Z,17.50
2018-09-01T05:26:44.613Z,17.40
2018-09-01T05:29:16.831Z,17.40
2018-09-01T05:31:49.055Z,17.40
2018-09-01T05:34:21.571Z,17.40
2018-09-01T05:36:53.730Z,17.40
2018-09-01T05:39:26.045Z,17.30
2018-09-01T05:41:58.191Z,17.30
2018-09-01T05:44:30.368Z,17.30
2018-09-01T05:47:02.966Z,17.40
2018-09-01T05:49:35.152Z,17.30
2018-09-01T05:52:07.440Z,17.30
2018-09-01T05:54:39.931Z,17.20
2018-09-01T05:57:12.328Z,17.20
2018-09-01T05:59:44.684Z,17.30
2018-09-01T06:02:17.006Z,17.30
2018-09-01T06:04:49.848Z,17.20
2018-09-01T06:07:22.261Z,17.10
2018-09-01T06:09:54.535Z,17.20
2018-09-01T06:12:26.748Z,17.10
2018-09-01T06:14:59.152Z,17.10
2018-09-01T06:17:31.406Z,17.10
2018-09-01T06:20:03.993Z,17.10
2018-09-01T06:22:36.291Z,17.10
2018-09-01T06:25:08.644Z,17.10
2018-09-01T06:27:50.048Z,17.00
2018-09-01T06:30:25.500Z,17.00
2018-09-01T06:32:58.265Z,17.00
2018-09-01T06:35:30.377Z,17.00
2018-09-01T06:38:02.580Z,16.90
2018-09-01T06:40:35.166Z,16.90
2018-09-01T06:43:08.564Z,16.90
2018-09-01T06:49:02.016Z,16.80
2018-09-01T06:51:34.915Z,16.80
2018-09-01T06:54:09.578Z,16.80
2018-09-01T06:56:43.148Z,16.70
2018-09-01T06:59:16.784Z,16.80
2018-09-01T07:01:50.063Z,16.80
2018-09-01T07:04:23.445Z,16.70
2018-09-01T07:06:56.871Z,16.70
2018-09-01T07:09:31.028Z,16.60
2018-09-01T07:12:04.421Z,16.60
2018-09-01T07:14:37.939Z,16.60
2018-09-01T07:20:42.005Z,16.50
2018-09-01T07:23:15.155Z,16.50
2018-09-01T07:25:47.933Z,16.50
2018-09-01T07:28:20.879Z,16.50
2018-09-01T07:30:53.759Z,16.50
2018-09-01T07:33:26.814Z,16.50
2018-09-01T07:35:59.705Z,16.40
2018-09-01T07:38:33.465Z,16.40
2018-09-01T07:41:06.426Z,16.40
2018-09-01T07:43:38.762Z,16.40
2018-09-01T07:46:11.655Z,16.30
2018-09-01T07:48:45.605Z,16.20
2018-09-01T07:51:18.599Z,16.30
2018-09-01T07:53:51.557Z,16.30
2018-09-01T07:56:24.360Z,16.10
2018-09-01T07:58:57.024Z,16.10
2018-09-01T08:01:29.844Z,16.10
2018-09-01T08:04:02.996Z,16.20
2018-09-01T08:06:35.829Z,16.20
2018-09-01T08:09:09.632Z,16.20
2018-09-01T08:11:42.450Z,16.10
2018-09-01T08:14:15.412Z,16.10
2018-09-01T08:16:48.814Z,16.20
2018-09-01T08:19:22.220Z,16.20
2018-09-01T08:21:55.462Z,16.30
2018-09-01T08:24:28.116Z,16.30
2018-09-01T08:27:01.276Z,16.20
2018-09-01T08:29:34.043Z,16.30
2018-09-01T08:32:40.088Z,16.40
2018-09-01T08:35:12.836Z,16.30
2018-09-01T08:37:46.145Z,16.30
2018-09-01T08:40:19.749Z,16.30
2018-09-01T08:42:52.879Z,16.30
2018-09-01T08:45:26.022Z,16.20
2018-09-01T08:47:59.287Z,16.20
2018-09-01T08:50:32.288Z,16.20
2018-09-01T08:53:05.155Z,16.20
2018-09-01T08:55:38.369Z,16.20
2018-09-01T08:58:11.480Z,16.20
2018-09-01T09:00:44.279Z,16.20
2018-09-01T09:03:16.995Z,16.20
2018-09-01T09:05:49.836Z,16.20
2018-09-01T09:08:22.876Z,16.20
2018-09-01T09:10:55.847Z,16.20
2018-09-01T09:13:28.756Z,16.20
2018-09-01T09:16:01.130Z,16.20
2018-09-01T09:18:34.242Z,16.20
2018-09-01T09:21:07.204Z,16.20
2018-09-01T09:23:40.210Z,16.30
2018-09-01T09:26:13.326Z,16.30
2018-09-01T09:28:46.388Z,16.20
2018-09-01T09:31:19.314Z,16.20
2018-09-01T09:33:52.423Z,16.20
2018-09-01T09:36:25.201Z,16.20
2018-09-01T09:38:58.296Z,16.30
2018-09-01T09:41:31.812Z,16.30
2018-09-01T09:44:04.739Z,16.30
2018-09-01T09:46:39.463Z,16.30
2018-09-01T09:49:12.490Z,16.30
2018-09-01T09:51:47.159Z,16.30
2018-09-01T09:54:20.350Z,16.30
2018-09-01T09:56:53.555Z,16.30
2018-09-01T09:59:26.344Z,16.30
2018-09-01T10:02:03.711Z,16.30
2018-09-01T10:04:36.626Z,16.30
2018-09-01T10:07:09.531Z,16.40
2018-09-01T10:13:02.927Z,16.40
2018-09-01T10:15:35.520Z,16.40
2018-09-01T10:18:09.106Z,16.30
2018-09-01T10:20:42.288Z,16.30
2018-09-01T10:23:14.662Z,16.30
2018-09-01T10:25:47.594Z,16.20
2018-09-01T10:28:20.237Z,16.20
2018-09-01T10:30:53.043Z,16.20
2018-09-01T10:33:25.701Z,16.20
2018-09-01T10:35:58.664Z,16.20
2018-09-01T10:38:31.941Z,16.10
2018-09-01T10:41:05.266Z,16.10
2018-09-01T10:43:38.206Z,16.00
2018-09-01T10:46:11.619Z,16.00
2018-09-01T10:48:44.997Z,16.00
2018-09-01T10:51:18.742Z,16.10
2018-09-01T10:53:51.759Z,16.10
2018-09-01T10:56:24.424Z,16.20
2018-09-01T10:58:57.431Z,16.20
2018-09-01T11:01:30.212Z,16.30
2018-09-01T11:04:03.171Z,16.30
2018-09-01T11:06:36.160Z,16.40
2018-09-01T11:09:12.134Z,16.40
2018-09-01T11:11:44.901Z,16.30
2018-09-01T11:14:17.841Z,16.30
2018-09-01T11:16:50.655Z,16.20
2018-09-01T11:19:23.671Z,16.10
2018-09-01T11:21:56.302Z,16.00
2018-09-01T11:24:28.909Z,16.00
2018-09-01T11:27:01.795Z,15.90
2018-09-01T11:29:34.518Z,15.80
2018-09-01T11:32:07.402Z,15.80
2018-09-01T11:34:39.868Z,15.80
2018-09-01T11:37:12.693Z,15.80
2018-09-01T11:39:45.501Z,15.80
2018-09-01T11:42:18.318Z,15.80
2018-09-01T11:44:51.172Z,15.70
2018-09-01T11:47:24.275Z,15.50
2018-09-01T11:50:01.134Z,15.50
2018-09-01T11:52:36.286Z,15.40
2018-09-01T11:55:09.832Z,15.40
2018-09-01T11:57:42.588Z,15.40
2018-09-01T12:00:17.799Z,15.30
2018-09-01T12:02:50.482Z,15.50
2018-09-01T12:05:23.299Z,15.50
2018-09-01T12:07:56.235Z,15.50
2018-09-01T12:10:29.055Z,15.70
2018-09-01T12:13:03.034Z,15.70
2018-09-01T12:15:37.818Z,15.80
2018-09-01T12:18:10.795Z,15.80
2018-09-01T12:20:43.893Z,16.00
2018-09-01T12:23:16.592Z,16.10
2018-09-01T12:25:49.237Z,16.30
2018-09-01T12:28:22.645Z,16.40
2018-09-01T12:30:57.461Z,16.80
2018-09-01T12:33:30.657Z,17.40
2018-09-01T12:36:04.622Z,18.20
2018-09-01T12:38:38.819Z,18.70
2018-09-01T12:41:11.637Z,19.30
2018-09-01T12:43:44.699Z,19.30
2018-09-01T12:46:17.247Z,19.00
2018-09-01T12:48:49.791Z,18.40
2018-09-01T12:51:22.599Z,18.30
2018-09-01T12:53:55.600Z,18.50
2018-09-01T12:56:29.371Z,18.90
2018-09-01T12:59:02.019Z,19.40
2018-09-01T13:01:34.564Z,20.10
2018-09-01T13:04:06.936Z,20.90
2018-09-01T13:06:39.983Z,21.10
2018-09-01T13:09:13.030Z,21.00
2018-09-01T13:11:46.157Z,21.30
2018-09-01T13:14:19.545Z,21.60
2018-09-01T13:16:52.433Z,22.00
2018-09-01T13:19:24.864Z,21.80
2018-09-01T13:21:58.764Z,21.20
2018-09-01T13:24:32.718Z,21.80
2018-09-01T13:27:05.791Z,21.70
2018-09-01T13:29:39.758Z,22.40
2018-09-01T13:32:14.716Z,21.80
2018-09-01T13:34:49.136Z,21.60
2018-09-01T13:37:22.109Z,21.60
2018-09-01T13:39:54.957Z,21.30
2018-09-01T13:42:27.822Z,20.60
2018-09-01T13:45:00.342Z,20.20
2018-09-01T13:47:33.695Z,20.20
2018-09-01T13:50:06.519Z,20.50
2018-09-01T13:52:39.075Z,21.20
2018-09-01T13:55:11.484Z,21.50
2018-09-01T13:57:44.449Z,22.20
2018-09-01T14:00:17.561Z,22.30
2018-09-01T14:02:50.264Z,22.30
2018-09-01T14:05:23.059Z,21.90
2018-09-01T14:07:55.436Z,21.60
2018-09-01T14:10:28.686Z,21.60
2018-09-01T14:13:01.293Z,21.70
2018-09-01T14:15:33.764Z,22.10
2018-09-01T14:18:06.290Z,21.60
2018-09-01T14:20:39.862Z,21.00
2018-09-01T14:23:12.226Z,21.00
2018-09-01T14:25:44.849Z,21.30
2018-09-01T14:28:17.849Z,22.10
2018-09-01T14:30:50.948Z,22.10
2018-09-01T14:33:23.888Z,22.90
2018-09-01T14:35:57.189Z,22.60
2018-09-01T14:38:30.660Z,21.80
2018-09-01T14:41:03.712Z,22.10
2018-09-01T14:43:36.663Z,22.40
2018-09-01T14:46:09.165Z,22.30
2018-09-01T14:48:41.476Z,22.10
2018-09-01T14:51:14.461Z,22.90
2018-09-01T14:53:47.400Z,23.50
2018-09-01T14:56:21.333Z,23.10
2018-09-01T14:58:54.435Z,22.10
2018-09-01T15:01:27.106Z,22.00
2018-09-01T15:03:59.721Z,21.80
2018-09-01T15:06:33.039Z,21.60
2018-09-01T15:09:07.070Z,21.50
2018-09-01T15:11:40.096Z,21.80
2018-09-01T15:14:14.019Z,21.60
2018-09-01T15:16:46.848Z,21.90
2018-09-01T15:19:19.619Z,22.20
2018-09-01T15:21:52.377Z,21.60
2018-09-01T15:24:24.761Z,22.00
2018-09-01T15:26:57.553Z,21.90
2018-09-01T15:29:30.472Z,22.00
2018-09-01T15:32:03.559Z,21.90
2018-09-01T15:34:35.793Z,22.00
2018-09-01T15:37:08.225Z,21.80
2018-09-01T15:39:40.459Z,22.20
2018-09-01T15:42:12.822Z,22.80
2018-09-01T15:44:45.610Z,23.60
2018-09-01T15:47:17.841Z,23.10
2018-09-01T15:49:50.114Z,23.20
2018-09-01T15:52:22.816Z,23.30
2018-09-01T15:54:55.346Z,23.20
2018-09-01T15:57:27.775Z,23.40
2018-09-01T16:00:00.016Z,23.90
2018-09-01T16:02:32.274Z,24.50
2018-09-01T16:05:04.530Z,25.20
2018-09-01T16:07:37.071Z,24.90
2018-09-01T16:10:09.716Z,24.10
2018-09-01T16:12:42.066Z,24.50
2018-09-01T16:15:14.555Z,23.40
2018-09-01T16:17:46.865Z,23.20
2018-09-01T16:20:19.096Z,22.90
2018-09-01T16:22:51.539Z,23.20
2018-09-01T16:25:23.879Z,24.10
2018-09-01T16:27:56.256Z,24.00
2018-09-01T16:30:28.629Z,23.70
2018-09-01T16:33:01.405Z,22.90
2018-09-01T16:35:33.764Z,22.30
2018-09-01T16:38:06.079Z,22.50
2018-09-01T16:40:38.472Z,23.60
2018-09-01T16:43:11.500Z,23.80
2018-09-01T16:45:43.709Z,24.70
2018-09-01T16:48:16.570Z,25.10
2018-09-01T16:50:48.836Z,24.30
2018-09-01T16:53:21.498Z,24.60
2018-09-01T16:55:53.729Z,24.20
2018-09-01T16:58:25.971Z,23.80
2018-09-01T17:00:58.310Z,23.90
2018-09-01T17:03:30.700Z,24.40
2018-09-01T17:06:03.465Z,23.90
2018-09-01T17:08:35.867Z,24.30
2018-09-01T17:11:08.106Z,24.20
2018-09-01T17:13:41.167Z,24.50
2018-09-01T17:16:13.418Z,24.60
2018-09-01T17:18:46.136Z,24.30
2018-09-01T17:21:18.926Z,24.30
2018-09-01T17:23:51.590Z,24.50
2018-09-01T17:26:24.238Z,23.90
2018-09-01T17:28:56.484Z,23.70
2018-09-01T17:31:28.747Z,24.50
2018-09-01T17:34:00.993Z,24.50
2018-09-01T17:36:33.181Z,24.30
2018-09-01T17:39:07.078Z,24.80
2018-09-01T17:41:39.489Z,25.70
2018-09-01T17:44:12.030Z,26.50
2018-09-01T17:46:44.438Z,25.50
2018-09-01T17:49:17.057Z,26.50
2018-09-01T17:51:49.688Z,25.80
2018-09-01T17:54:22.064Z,24.30
2018-09-01T17:56:54.513Z,24.40
2018-09-01T17:59:26.721Z,24.90
2018-09-01T18:01:59.290Z,25.30
2018-09-01T18:04:31.721Z,25.30
2018-09-01T18:07:04.091Z,25.60
2018-09-01T18:09:36.327Z,24.60
2018-09-01T18:12:08.594Z,25.00
2018-09-01T18:14:40.847Z,24.40
2018-09-01T18:17:13.106Z,24.00
2018-09-01T18:19:45.431Z,23.80
2018-09-01T18:22:18.559Z,24.10
2018-09-01T18:24:50.833Z,23.60
2018-09-01T18:27:23.140Z,24.00
2018-09-01T18:29:55.530Z,24.20
2018-09-01T18:32:27.693Z,24.30
2018-09-01T18:35:00.164Z,24.60
2018-09-01T18:37:32.541Z,24.40
2018-09-01T18:40:04.761Z,24.20
2018-09-01T18:42:37.144Z,24.40
2018-09-01T18:45:10.533Z,24.30
2018-09-01T18:47:56.130Z,24.10
2018-09-01T18:50:28.386Z,24.40
2018-09-01T18:53:03.115Z,24.20
2018-09-01T18:55:35.345Z,24.80
2018-09-01T18:58:07.733Z,25.40
2018-09-01T19:00:40.557Z,25.60
2018-09-01T19:03:14.536Z,26.00
2018-09-01T19:05:46.851Z,25.70
2018-09-01T19:08:19.178Z,25.30
2018-09-01T19:10:52.596Z,25.20
2018-09-01T19:13:25.128Z,24.70
2018-09-01T19:15:57.472Z,24.50
2018-09-01T19:18:29.686Z,24.80
2018-09-01T19:21:02.155Z,24.70
2018-09-01T19:23:35.364Z,24.40
2018-09-01T19:26:07.893Z,24.10
2018-09-01T19:28:40.354Z,23.80
2018-09-01T19:31:13.320Z,23.80
2018-09-01T19:33:45.571Z,23.80
2018-09-01T19:36:18.315Z,24.20
2018-09-01T19:38:50.667Z,24.90
2018-09-01T19:41:23.129Z,25.60
2018-09-01T19:43:58.162Z,25.00
2018-09-01T19:46:31.649Z,24.80
2018-09-01T19:49:03.968Z,24.40
2018-09-01T19:51:36.509Z,24.50
2018-09-01T19:54:09.432Z,24.00
2018-09-01T19:56:41.755Z,23.90
2018-09-01T19:59:14.029Z,23.80
2018-09-01T20:01:46.382Z,23.80
2018-09-01T20:04:18.700Z,23.90
2018-09-01T20:06:51.217Z,23.80
2018-09-01T20:09:23.585Z,23.70
2018-09-01T20:11:56.423Z,23.50
2018-09-01T20:14:29.047Z,23.50
2018-09-01T20:17:01.410Z,23.50
2018-09-01T20:19:33.848Z,23.30
2018-09-01T20:22:07.661Z,23.30
2018-09-01T20:24:40.299Z,23.40
2018-09-01T20:27:13.113Z,23.40
2018-09-01T20:29:45.363Z,23.30
2018-09-01T20:32:17.661Z,23.20
2018-09-01T20:34:50.648Z,23.20
2018-09-01T20:37:25.987Z,23.20
2018-09-01T20:39:58.735Z,23.10
2018-09-01T20:42:31.047Z,23.10
2018-09-01T20:45:04.014Z,23.00
2018-09-01T20:47:36.312Z,22.80
2018-09-01T20:50:08.687Z,22.60
2018-09-01T20:52:40.999Z,22.70
2018-09-01T20:55:13.399Z,22.60
2018-09-01T20:57:46.098Z,22.70
2018-09-01T21:00:18.374Z,22.80
2018-09-01T21:02:50.672Z,23.00
2018-09-01T21:05:23.005Z,23.20
2018-09-01T21:07:55.299Z,22.40
2018-09-01T21:10:27.920Z,21.90
2018-09-01T21:13:00.194Z,21.40
2018-09-01T21:15:32.680Z,21.20
2018-09-01T21:18:05.228Z,21.10
2018-09-01T21:20:38.483Z,21.10
2018-09-01T21:23:10.907Z,20.70
2018-09-01T21:25:43.404Z,20.10
2018-09-01T21:28:16.869Z,19.80
2018-09-01T21:30:52.374Z,19.80
2018-09-01T21:33:24.818Z,20.00
2018-09-01T21:35:57.121Z,20.10
2018-09-01T21:38:38.748Z,20.10
2018-09-01T21:41:15.593Z,20.00
2018-09-01T21:43:54.404Z,19.90
2018-09-01T21:46:31.097Z,19.80
2018-09-01T21:49:11.618Z,19.70
2018-09-01T21:51:58.246Z,19.70
2018-09-01T21:54:40.422Z,19.80
2018-09-01T21:57:18.877Z,19.90
2018-09-01T22:03:12.733Z,19.80
2018-09-01T22:05:58.231Z,19.80
2018-09-01T22:08:44.920Z,19.90
2018-09-01T22:11:37.584Z,19.90
2018-09-01T22:14:26.083Z,19.90
2018-09-01T22:17:21.132Z,19.90
2018-09-01T22:20:09.693Z,19.90
2018-09-01T22:22:56.753Z,19.90
2018-09-01T22:25:41.987Z,19.90
2018-09-01T22:28:27.159Z,19.80
2018-09-01T22:31:22.295Z,19.70
2018-09-01T22:34:05.238Z,19.70
2018-09-01T22:39:32.341Z,19.40
2018-09-01T22:42:11.766Z,19.50
2018-09-01T22:44:52.114Z,19.50
2018-09-01T22:47:37.278Z,19.60
2018-09-01T22:50:20.108Z,19.70
2018-09-01T22:53:09.865Z,19.70
2018-09-01T22:56:01.942Z,19.80
2018-09-01T22:58:54.055Z,19.80
2018-09-01T23:01:46.329Z,19.90
2018-09-01T23:04:42.161Z,19.90
2018-09-01T23:07:20.051Z,20.00
2018-09-01T23:12:45.990Z,19.90
2018-09-01T23:15:26.854Z,19.80
2018-09-01T23:18:08.338Z,19.60
2018-09-01T23:20:51.752Z,19.60
2018-09-01T23:23:34.003Z,19.60
2018-09-01T23:26:14.842Z,19.50
2018-09-01T23:28:57.801Z,19.50
2018-09-01T23:31:52.222Z,19.40
2018-09-01T23:37:33.670Z,19.00
2018-09-01T23:40:25.644Z,18.90
2018-09-01T23:43:14.420Z,18.70
2018-09-01T23:45:55.946Z,18.70
2018-09-01T23:48:44.344Z,18.60
2018-09-01T23:51:27.059Z,18.50
2018-09-01T23:54:23.708Z,18.50
2018-09-01T23:57:10.537Z,18.50
2018-09-01T23:59:59.766Z,18.60
